<?xml version="1.0" encoding="UTF-8" standalone="no" ?>
<gpx xmlns="http://www.topografix.com/GPX/1/1" xmlns:xsi="http://www.w3.org/2001/XMLSchema-instance" xsi:schemaLocation="http://www.topografix.com/GPX/1/1 http://www.topografix.com/GPX/1/1/gpx.xsd" version="1.1" creator="VisuGPX - https://www.visugpx.com">
  <metadata>
    <name>GR10 ~ 24 étape - Lac de l'Oule / Bourisp</name>
  </metadata>
  <wpt lat="42.83883" lon="0.19899">
    <ele>1822.2</ele>
    <name><![CDATA[Lac de l'Oule]]></name>
    <desc><![CDATA[Bivouac]]></desc>
    <type><![CDATA[camping]]></type>
  </wpt>
  <wpt lat="42.83311" lon="0.2365">
    <ele>2210.3</ele>
    <name><![CDATA[Col de Portet]]></name>
    <desc><![CDATA[Alt: 2210.3m]]></desc>
    <type><![CDATA[col]]></type>
  </wpt>
  <wpt lat="42.83874" lon="0.3022">
    <ele>1629.4</ele>
    <name><![CDATA[Cap de Pède]]></name>
    <desc><![CDATA[Alt: 1629.4m]]></desc>
    <type><![CDATA[sommet]]></type>
  </wpt>
  <wpt lat="42.82704" lon="0.33588">
    <ele>798.2</ele>
    <name><![CDATA[Camping La Mousquère ⭐⭐⭐⭐]]></name>
    <desc><![CDATA[Alt: 798.2m]]></desc>
    <type><![CDATA[camping]]></type>
  </wpt>
  <trk>
    <name><![CDATA[19 étape 24 GR 10]]></name>
    <extensions>
      <line xmlns="http://www.topografix.com/GPX/gpx_style/0/2">
        <color>0000FF</color>
        <opacity>1</opacity>
        <width>4</width>
      </line>
    </extensions>
    <trkseg>
      <trkpt lat="42.83946" lon="0.19789">
        <ele>1892</ele>
        <time>2024-07-25T07:54:08+02:00</time>
      </trkpt>
      <trkpt lat="42.83984" lon="0.19807">
        <ele>1887</ele>
        <time>2024-07-25T07:58:04+02:00</time>
      </trkpt>
      <trkpt lat="42.83984" lon="0.19864">
        <ele>1909</ele>
        <time>2024-07-25T07:59:52+02:00</time>
      </trkpt>
      <trkpt lat="42.84002" lon="0.19915">
        <ele>1913</ele>
        <time>2024-07-25T08:00:38+02:00</time>
      </trkpt>
      <trkpt lat="42.84041" lon="0.19955">
        <ele>1926</ele>
        <time>2024-07-25T08:01:50+02:00</time>
      </trkpt>
      <trkpt lat="42.84069" lon="0.19995">
        <ele>1932</ele>
        <time>2024-07-25T08:03:29+02:00</time>
      </trkpt>
      <trkpt lat="42.84052" lon="0.20046">
        <ele>1938</ele>
        <time>2024-07-25T08:04:49+02:00</time>
      </trkpt>
      <trkpt lat="42.84015" lon="0.20076">
        <ele>1947</ele>
        <time>2024-07-25T08:06:11+02:00</time>
      </trkpt>
      <trkpt lat="42.83979" lon="0.20101">
        <ele>1951</ele>
        <time>2024-07-25T08:07:05+02:00</time>
      </trkpt>
      <trkpt lat="42.83945" lon="0.20141">
        <ele>1957</ele>
        <time>2024-07-25T08:08:01+02:00</time>
      </trkpt>
      <trkpt lat="42.83921" lon="0.20186">
        <ele>1966</ele>
        <time>2024-07-25T08:08:55+02:00</time>
      </trkpt>
      <trkpt lat="42.83881" lon="0.20211">
        <ele>1970</ele>
        <time>2024-07-25T08:10:02+02:00</time>
      </trkpt>
      <trkpt lat="42.83837" lon="0.20244">
        <ele>1978</ele>
        <time>2024-07-25T08:11:08+02:00</time>
      </trkpt>
      <trkpt lat="42.83807" lon="0.20284">
        <ele>1987</ele>
        <time>2024-07-25T08:12:23+02:00</time>
      </trkpt>
      <trkpt lat="42.83771" lon="0.20313">
        <ele>1995</ele>
        <time>2024-07-25T08:13:29+02:00</time>
      </trkpt>
      <trkpt lat="42.83738" lon="0.2035">
        <ele>2005</ele>
        <time>2024-07-25T08:14:41+02:00</time>
      </trkpt>
      <trkpt lat="42.83702" lon="0.20384">
        <ele>2014</ele>
        <time>2024-07-25T08:15:47+02:00</time>
      </trkpt>
      <trkpt lat="42.83668" lon="0.20415">
        <ele>2022</ele>
        <time>2024-07-25T08:16:49+02:00</time>
      </trkpt>
      <trkpt lat="42.83701" lon="0.20377">
        <ele>2032</ele>
        <time>2024-07-25T08:19:05+02:00</time>
      </trkpt>
      <trkpt lat="42.83741" lon="0.20383">
        <ele>2043</ele>
        <time>2024-07-25T08:20:19+02:00</time>
      </trkpt>
      <trkpt lat="42.83789" lon="0.20384">
        <ele>2053</ele>
        <time>2024-07-25T08:21:21+02:00</time>
      </trkpt>
      <trkpt lat="42.83823" lon="0.2042">
        <ele>2063</ele>
        <time>2024-07-25T08:22:11+02:00</time>
      </trkpt>
      <trkpt lat="42.83865" lon="0.20422">
        <ele>2073</ele>
        <time>2024-07-25T08:24:33+02:00</time>
      </trkpt>
      <trkpt lat="42.83931" lon="0.2042">
        <ele>2080</ele>
        <time>2024-07-25T08:26:15+02:00</time>
      </trkpt>
      <trkpt lat="42.83972" lon="0.20426">
        <ele>2089</ele>
        <time>2024-07-25T08:27:09+02:00</time>
      </trkpt>
      <trkpt lat="42.84025" lon="0.20426">
        <ele>2100</ele>
        <time>2024-07-25T08:28:23+02:00</time>
      </trkpt>
      <trkpt lat="42.84065" lon="0.20465">
        <ele>2109</ele>
        <time>2024-07-25T08:30:19+02:00</time>
      </trkpt>
      <trkpt lat="42.84094" lon="0.20509">
        <ele>2121</ele>
        <time>2024-07-25T08:31:13+02:00</time>
      </trkpt>
      <trkpt lat="42.8411" lon="0.20561">
        <ele>2129</ele>
        <time>2024-07-25T08:32:01+02:00</time>
      </trkpt>
      <trkpt lat="42.84133" lon="0.20614">
        <ele>2138</ele>
        <time>2024-07-25T08:32:49+02:00</time>
      </trkpt>
      <trkpt lat="42.84163" lon="0.20653">
        <ele>2150</ele>
        <time>2024-07-25T08:34:07+02:00</time>
      </trkpt>
      <trkpt lat="42.84186" lon="0.20706">
        <ele>2156</ele>
        <time>2024-07-25T08:35:19+02:00</time>
      </trkpt>
      <trkpt lat="42.84199" lon="0.2076">
        <ele>2164</ele>
        <time>2024-07-25T08:36:25+02:00</time>
      </trkpt>
      <trkpt lat="42.8423" lon="0.20806">
        <ele>2172</ele>
        <time>2024-07-25T08:37:55+02:00</time>
      </trkpt>
      <trkpt lat="42.8419" lon="0.2083">
        <ele>2178</ele>
        <time>2024-07-25T08:41:07+02:00</time>
      </trkpt>
      <trkpt lat="42.84155" lon="0.20801">
        <ele>2181</ele>
        <time>2024-07-25T08:41:55+02:00</time>
      </trkpt>
      <trkpt lat="42.8411" lon="0.20788">
        <ele>2186</ele>
        <time>2024-07-25T08:42:27+02:00</time>
      </trkpt>
      <trkpt lat="42.84069" lon="0.20783">
        <ele>2188</ele>
        <time>2024-07-25T08:43:21+02:00</time>
      </trkpt>
      <trkpt lat="42.84027" lon="0.20797">
        <ele>2188</ele>
        <time>2024-07-25T08:44:04+02:00</time>
      </trkpt>
      <trkpt lat="42.83984" lon="0.20797">
        <ele>2191</ele>
        <time>2024-07-25T08:44:51+02:00</time>
      </trkpt>
      <trkpt lat="42.83937" lon="0.20816">
        <ele>2188</ele>
        <time>2024-07-25T08:45:45+02:00</time>
      </trkpt>
      <trkpt lat="42.83891" lon="0.20811">
        <ele>2186</ele>
        <time>2024-07-25T08:46:38+02:00</time>
      </trkpt>
      <trkpt lat="42.83848" lon="0.2083">
        <ele>2183</ele>
        <time>2024-07-25T08:47:31+02:00</time>
      </trkpt>
      <trkpt lat="42.83804" lon="0.2083">
        <ele>2180</ele>
        <time>2024-07-25T08:48:48+02:00</time>
      </trkpt>
      <trkpt lat="42.83756" lon="0.20834">
        <ele>2179</ele>
        <time>2024-07-25T08:49:26+02:00</time>
      </trkpt>
      <trkpt lat="42.83718" lon="0.20856">
        <ele>2177</ele>
        <time>2024-07-25T08:50:06+02:00</time>
      </trkpt>
      <trkpt lat="42.8367" lon="0.2087">
        <ele>2176</ele>
        <time>2024-07-25T08:50:50+02:00</time>
      </trkpt>
      <trkpt lat="42.83625" lon="0.20865">
        <ele>2177</ele>
        <time>2024-07-25T08:52:12+02:00</time>
      </trkpt>
      <trkpt lat="42.83583" lon="0.20867">
        <ele>2176</ele>
        <time>2024-07-25T08:53:00+02:00</time>
      </trkpt>
      <trkpt lat="42.83542" lon="0.20879">
        <ele>2176</ele>
        <time>2024-07-25T08:53:26+02:00</time>
      </trkpt>
      <trkpt lat="42.83499" lon="0.20895">
        <ele>2178</ele>
        <time>2024-07-25T08:54:08+02:00</time>
      </trkpt>
      <trkpt lat="42.83454" lon="0.20886">
        <ele>2181</ele>
        <time>2024-07-25T08:54:51+02:00</time>
      </trkpt>
      <trkpt lat="42.83412" lon="0.20899">
        <ele>2183</ele>
        <time>2024-07-25T08:55:39+02:00</time>
      </trkpt>
      <trkpt lat="42.83376" lon="0.20925">
        <ele>2184</ele>
        <time>2024-07-25T08:56:14+02:00</time>
      </trkpt>
      <trkpt lat="42.83341" lon="0.20966">
        <ele>2183</ele>
        <time>2024-07-25T08:56:56+02:00</time>
      </trkpt>
      <trkpt lat="42.83298" lon="0.20963">
        <ele>2185</ele>
        <time>2024-07-25T08:57:44+02:00</time>
      </trkpt>
      <trkpt lat="42.83259" lon="0.2098">
        <ele>2187</ele>
        <time>2024-07-25T08:58:22+02:00</time>
      </trkpt>
      <trkpt lat="42.83211" lon="0.20995">
        <ele>2189</ele>
        <time>2024-07-25T08:59:10+02:00</time>
      </trkpt>
      <trkpt lat="42.83188" lon="0.21049">
        <ele>2192</ele>
        <time>2024-07-25T09:01:02+02:00</time>
      </trkpt>
      <trkpt lat="42.83167" lon="0.21102">
        <ele>2194</ele>
        <time>2024-07-25T09:01:50+02:00</time>
      </trkpt>
      <trkpt lat="42.83168" lon="0.21162">
        <ele>2195</ele>
        <time>2024-07-25T09:02:33+02:00</time>
      </trkpt>
      <trkpt lat="42.8316" lon="0.2122">
        <ele>2197</ele>
        <time>2024-07-25T09:03:09+02:00</time>
      </trkpt>
      <trkpt lat="42.83125" lon="0.21254">
        <ele>2200</ele>
        <time>2024-07-25T09:03:51+02:00</time>
      </trkpt>
      <trkpt lat="42.83109" lon="0.21308">
        <ele>2202</ele>
        <time>2024-07-25T09:04:38+02:00</time>
      </trkpt>
      <trkpt lat="42.83121" lon="0.21366">
        <ele>2202</ele>
        <time>2024-07-25T09:05:20+02:00</time>
      </trkpt>
      <trkpt lat="42.83135" lon="0.2142">
        <ele>2201</ele>
        <time>2024-07-25T09:05:56+02:00</time>
      </trkpt>
      <trkpt lat="42.83149" lon="0.2148">
        <ele>2200</ele>
        <time>2024-07-25T09:06:50+02:00</time>
      </trkpt>
      <trkpt lat="42.83159" lon="0.21544">
        <ele>2198</ele>
        <time>2024-07-25T09:07:26+02:00</time>
      </trkpt>
      <trkpt lat="42.83163" lon="0.21608">
        <ele>2196</ele>
        <time>2024-07-25T09:08:08+02:00</time>
      </trkpt>
      <trkpt lat="42.83158" lon="0.21672">
        <ele>2196</ele>
        <time>2024-07-25T09:08:50+02:00</time>
      </trkpt>
      <trkpt lat="42.83155" lon="0.21738">
        <ele>2196</ele>
        <time>2024-07-25T09:09:20+02:00</time>
      </trkpt>
      <trkpt lat="42.83177" lon="0.2179">
        <ele>2197</ele>
        <time>2024-07-25T09:10:35+02:00</time>
      </trkpt>
      <trkpt lat="42.83186" lon="0.21846">
        <ele>2197</ele>
        <time>2024-07-25T09:11:06+02:00</time>
      </trkpt>
      <trkpt lat="42.83199" lon="0.21901">
        <ele>2197</ele>
        <time>2024-07-25T09:11:54+02:00</time>
      </trkpt>
      <trkpt lat="42.83202" lon="0.21959">
        <ele>2198</ele>
        <time>2024-07-25T09:12:42+02:00</time>
      </trkpt>
      <trkpt lat="42.83218" lon="0.22015">
        <ele>2201</ele>
        <time>2024-07-25T09:13:30+02:00</time>
      </trkpt>
      <trkpt lat="42.83216" lon="0.22072">
        <ele>2204</ele>
        <time>2024-07-25T09:14:06+02:00</time>
      </trkpt>
      <trkpt lat="42.83239" lon="0.22117">
        <ele>2206</ele>
        <time>2024-07-25T09:14:36+02:00</time>
      </trkpt>
      <trkpt lat="42.83242" lon="0.22172">
        <ele>2209</ele>
        <time>2024-07-25T09:15:12+02:00</time>
      </trkpt>
      <trkpt lat="42.83241" lon="0.22242">
        <ele>2209</ele>
        <time>2024-07-25T09:16:05+02:00</time>
      </trkpt>
      <trkpt lat="42.83255" lon="0.22298">
        <ele>2210</ele>
        <time>2024-07-25T09:16:42+02:00</time>
      </trkpt>
      <trkpt lat="42.83279" lon="0.22348">
        <ele>2212</ele>
        <time>2024-07-25T09:17:24+02:00</time>
      </trkpt>
      <trkpt lat="42.83304" lon="0.22395">
        <ele>2214</ele>
        <time>2024-07-25T09:18:01+02:00</time>
      </trkpt>
      <trkpt lat="42.83321" lon="0.2245">
        <ele>2213</ele>
        <time>2024-07-25T09:18:36+02:00</time>
      </trkpt>
      <trkpt lat="42.83361" lon="0.22488">
        <ele>2212</ele>
        <time>2024-07-25T09:19:18+02:00</time>
      </trkpt>
      <trkpt lat="42.83388" lon="0.22539">
        <ele>2212</ele>
        <time>2024-07-25T09:19:54+02:00</time>
      </trkpt>
      <trkpt lat="42.83428" lon="0.22571">
        <ele>2209</ele>
        <time>2024-07-25T09:20:30+02:00</time>
      </trkpt>
      <trkpt lat="42.83472" lon="0.22589">
        <ele>2210</ele>
        <time>2024-07-25T09:21:12+02:00</time>
      </trkpt>
      <trkpt lat="42.83465" lon="0.22649">
        <ele>2212</ele>
        <time>2024-07-25T09:22:06+02:00</time>
      </trkpt>
      <trkpt lat="42.83465" lon="0.22711">
        <ele>2214</ele>
        <time>2024-07-25T09:22:48+02:00</time>
      </trkpt>
      <trkpt lat="42.83445" lon="0.22778">
        <ele>2217</ele>
        <time>2024-07-25T09:23:42+02:00</time>
      </trkpt>
      <trkpt lat="42.83437" lon="0.22835">
        <ele>2218</ele>
        <time>2024-07-25T09:24:18+02:00</time>
      </trkpt>
      <trkpt lat="42.83437" lon="0.22892">
        <ele>2221</ele>
        <time>2024-07-25T09:24:54+02:00</time>
      </trkpt>
      <trkpt lat="42.83407" lon="0.22936">
        <ele>2225</ele>
        <time>2024-07-25T09:26:00+02:00</time>
      </trkpt>
      <trkpt lat="42.83366" lon="0.2296">
        <ele>2230</ele>
        <time>2024-07-25T09:27:00+02:00</time>
      </trkpt>
      <trkpt lat="42.8332" lon="0.22954">
        <ele>2236</ele>
        <time>2024-07-25T09:27:42+02:00</time>
      </trkpt>
      <trkpt lat="42.83278" lon="0.22962">
        <ele>2241</ele>
        <time>2024-07-25T09:28:24+02:00</time>
      </trkpt>
      <trkpt lat="42.83235" lon="0.22959">
        <ele>2245</ele>
        <time>2024-07-25T09:29:01+02:00</time>
      </trkpt>
      <trkpt lat="42.83194" lon="0.22959">
        <ele>2247</ele>
        <time>2024-07-25T09:29:45+02:00</time>
      </trkpt>
      <trkpt lat="42.83151" lon="0.22973">
        <ele>2252</ele>
        <time>2024-07-25T09:30:34+02:00</time>
      </trkpt>
      <trkpt lat="42.83149" lon="0.23033">
        <ele>2259</ele>
        <time>2024-07-25T09:31:32+02:00</time>
      </trkpt>
      <trkpt lat="42.83153" lon="0.2309">
        <ele>2260</ele>
        <time>2024-07-25T09:32:13+02:00</time>
      </trkpt>
      <trkpt lat="42.83142" lon="0.23148">
        <ele>2259</ele>
        <time>2024-07-25T09:32:54+02:00</time>
      </trkpt>
      <trkpt lat="42.83148" lon="0.23216">
        <ele>2261</ele>
        <time>2024-07-25T09:33:36+02:00</time>
      </trkpt>
      <trkpt lat="42.8316" lon="0.23273">
        <ele>2263</ele>
        <time>2024-07-25T09:34:13+02:00</time>
      </trkpt>
      <trkpt lat="42.8317" lon="0.23328">
        <ele>2265</ele>
        <time>2024-07-25T09:34:49+02:00</time>
      </trkpt>
      <trkpt lat="42.83187" lon="0.23381">
        <ele>2266</ele>
        <time>2024-07-25T09:35:26+02:00</time>
      </trkpt>
      <trkpt lat="42.83202" lon="0.23434">
        <ele>2262</ele>
        <time>2024-07-25T09:36:08+02:00</time>
      </trkpt>
      <trkpt lat="42.83234" lon="0.23486">
        <ele>2264</ele>
        <time>2024-07-25T09:36:56+02:00</time>
      </trkpt>
      <trkpt lat="42.83251" lon="0.23542">
        <ele>2265</ele>
        <time>2024-07-25T09:37:44+02:00</time>
      </trkpt>
      <trkpt lat="42.83281" lon="0.23597">
        <ele>2260</ele>
        <time>2024-07-25T09:38:31+02:00</time>
      </trkpt>
      <trkpt lat="42.83307" lon="0.23647">
        <ele>2258</ele>
        <time>2024-07-25T09:39:14+02:00</time>
      </trkpt>
      <trkpt lat="42.83268" lon="0.23669">
        <ele>2246</ele>
        <time>2024-07-25T09:40:56+02:00</time>
      </trkpt>
      <trkpt lat="42.83311" lon="0.23648">
        <ele>2238</ele>
        <time>2024-07-25T09:44:00+02:00</time>
      </trkpt>
      <trkpt lat="42.83351" lon="0.23666">
        <ele>2232</ele>
        <time>2024-07-25T09:44:45+02:00</time>
      </trkpt>
      <trkpt lat="42.83391" lon="0.23688">
        <ele>2225</ele>
        <time>2024-07-25T09:45:37+02:00</time>
      </trkpt>
      <trkpt lat="42.83432" lon="0.23699">
        <ele>2219</ele>
        <time>2024-07-25T09:46:19+02:00</time>
      </trkpt>
      <trkpt lat="42.83471" lon="0.23717">
        <ele>2210</ele>
        <time>2024-07-25T09:47:01+02:00</time>
      </trkpt>
      <trkpt lat="42.83511" lon="0.23732">
        <ele>2204</ele>
        <time>2024-07-25T09:47:54+02:00</time>
      </trkpt>
      <trkpt lat="42.83504" lon="0.23792">
        <ele>2200</ele>
        <time>2024-07-25T09:49:24+02:00</time>
      </trkpt>
      <trkpt lat="42.83505" lon="0.2385">
        <ele>2197</ele>
        <time>2024-07-25T09:50:01+02:00</time>
      </trkpt>
      <trkpt lat="42.83507" lon="0.23909">
        <ele>2192</ele>
        <time>2024-07-25T09:50:43+02:00</time>
      </trkpt>
      <trkpt lat="42.83554" lon="0.23969">
        <ele>2186</ele>
        <time>2024-07-25T09:51:08+02:00</time>
      </trkpt>
      <trkpt lat="42.83582" lon="0.24025">
        <ele>2179</ele>
        <time>2024-07-25T09:51:50+02:00</time>
      </trkpt>
      <trkpt lat="42.83583" lon="0.24085">
        <ele>2171</ele>
        <time>2024-07-25T09:52:37+02:00</time>
      </trkpt>
      <trkpt lat="42.8358" lon="0.24146">
        <ele>2163</ele>
        <time>2024-07-25T09:53:31+02:00</time>
      </trkpt>
      <trkpt lat="42.83566" lon="0.24202">
        <ele>2155</ele>
        <time>2024-07-25T09:54:19+02:00</time>
      </trkpt>
      <trkpt lat="42.83562" lon="0.24267">
        <ele>2146</ele>
        <time>2024-07-25T09:55:19+02:00</time>
      </trkpt>
      <trkpt lat="42.83537" lon="0.24328">
        <ele>2139</ele>
        <time>2024-07-25T09:56:07+02:00</time>
      </trkpt>
      <trkpt lat="42.83521" lon="0.2438">
        <ele>2132</ele>
        <time>2024-07-25T09:56:49+02:00</time>
      </trkpt>
      <trkpt lat="42.83502" lon="0.24441">
        <ele>2123</ele>
        <time>2024-07-25T09:57:37+02:00</time>
      </trkpt>
      <trkpt lat="42.8349" lon="0.24501">
        <ele>2117</ele>
        <time>2024-07-25T09:58:25+02:00</time>
      </trkpt>
      <trkpt lat="42.83483" lon="0.24565">
        <ele>2110</ele>
        <time>2024-07-25T09:59:13+02:00</time>
      </trkpt>
      <trkpt lat="42.83486" lon="0.24623">
        <ele>2105</ele>
        <time>2024-07-25T09:59:53+02:00</time>
      </trkpt>
      <trkpt lat="42.8348" lon="0.24693">
        <ele>2102</ele>
        <time>2024-07-25T10:00:35+02:00</time>
      </trkpt>
      <trkpt lat="42.83517" lon="0.24733">
        <ele>2097</ele>
        <time>2024-07-25T10:01:25+02:00</time>
      </trkpt>
      <trkpt lat="42.83511" lon="0.24789">
        <ele>2094</ele>
        <time>2024-07-25T10:02:05+02:00</time>
      </trkpt>
      <trkpt lat="42.83505" lon="0.2485">
        <ele>2091</ele>
        <time>2024-07-25T10:02:53+02:00</time>
      </trkpt>
      <trkpt lat="42.83494" lon="0.24911">
        <ele>2091</ele>
        <time>2024-07-25T10:03:31+02:00</time>
      </trkpt>
      <trkpt lat="42.8348" lon="0.24969">
        <ele>2089</ele>
        <time>2024-07-25T10:04:07+02:00</time>
      </trkpt>
      <trkpt lat="42.83466" lon="0.25021">
        <ele>2087</ele>
        <time>2024-07-25T10:04:37+02:00</time>
      </trkpt>
      <trkpt lat="42.83437" lon="0.25066">
        <ele>2085</ele>
        <time>2024-07-25T10:05:13+02:00</time>
      </trkpt>
      <trkpt lat="42.83415" lon="0.25124">
        <ele>2083</ele>
        <time>2024-07-25T10:05:55+02:00</time>
      </trkpt>
      <trkpt lat="42.83394" lon="0.25176">
        <ele>2083</ele>
        <time>2024-07-25T10:06:30+02:00</time>
      </trkpt>
      <trkpt lat="42.8338" lon="0.25233">
        <ele>2080</ele>
        <time>2024-07-25T10:07:11+02:00</time>
      </trkpt>
      <trkpt lat="42.83376" lon="0.2529">
        <ele>2079</ele>
        <time>2024-07-25T10:07:47+02:00</time>
      </trkpt>
      <trkpt lat="42.83359" lon="0.25351">
        <ele>2077</ele>
        <time>2024-07-25T10:08:25+02:00</time>
      </trkpt>
      <trkpt lat="42.83354" lon="0.2541">
        <ele>2076</ele>
        <time>2024-07-25T10:09:00+02:00</time>
      </trkpt>
      <trkpt lat="42.83335" lon="0.25469">
        <ele>2075</ele>
        <time>2024-07-25T10:09:58+02:00</time>
      </trkpt>
      <trkpt lat="42.83331" lon="0.25525">
        <ele>2070</ele>
        <time>2024-07-25T10:10:34+02:00</time>
      </trkpt>
      <trkpt lat="42.83321" lon="0.25586">
        <ele>2068</ele>
        <time>2024-07-25T10:11:16+02:00</time>
      </trkpt>
      <trkpt lat="42.83321" lon="0.2565">
        <ele>2067</ele>
        <time>2024-07-25T10:11:46+02:00</time>
      </trkpt>
      <trkpt lat="42.83329" lon="0.25707">
        <ele>2062</ele>
        <time>2024-07-25T10:12:16+02:00</time>
      </trkpt>
      <trkpt lat="42.83349" lon="0.25761">
        <ele>2060</ele>
        <time>2024-07-25T10:13:04+02:00</time>
      </trkpt>
      <trkpt lat="42.83368" lon="0.25813">
        <ele>2056</ele>
        <time>2024-07-25T10:13:40+02:00</time>
      </trkpt>
      <trkpt lat="42.83379" lon="0.25874">
        <ele>2053</ele>
        <time>2024-07-25T10:14:24+02:00</time>
      </trkpt>
      <trkpt lat="42.83391" lon="0.25927">
        <ele>2051</ele>
        <time>2024-07-25T10:14:58+02:00</time>
      </trkpt>
      <trkpt lat="42.83404" lon="0.25981">
        <ele>2047</ele>
        <time>2024-07-25T10:15:34+02:00</time>
      </trkpt>
      <trkpt lat="42.83419" lon="0.26051">
        <ele>2044</ele>
        <time>2024-07-25T10:16:12+02:00</time>
      </trkpt>
      <trkpt lat="42.83424" lon="0.26113">
        <ele>2039</ele>
        <time>2024-07-25T10:16:48+02:00</time>
      </trkpt>
      <trkpt lat="42.83439" lon="0.26171">
        <ele>2036</ele>
        <time>2024-07-25T10:17:34+02:00</time>
      </trkpt>
      <trkpt lat="42.83446" lon="0.2623">
        <ele>2031</ele>
        <time>2024-07-25T10:18:10+02:00</time>
      </trkpt>
      <trkpt lat="42.83447" lon="0.26292">
        <ele>2027</ele>
        <time>2024-07-25T10:18:52+02:00</time>
      </trkpt>
      <trkpt lat="42.83447" lon="0.26354">
        <ele>2023</ele>
        <time>2024-07-25T10:19:28+02:00</time>
      </trkpt>
      <trkpt lat="42.83442" lon="0.26413">
        <ele>2018</ele>
        <time>2024-07-25T10:20:04+02:00</time>
      </trkpt>
      <trkpt lat="42.83451" lon="0.26473">
        <ele>2015</ele>
        <time>2024-07-25T10:20:44+02:00</time>
      </trkpt>
      <trkpt lat="42.83447" lon="0.26529">
        <ele>2011</ele>
        <time>2024-07-25T10:22:13+02:00</time>
      </trkpt>
      <trkpt lat="42.83457" lon="0.26585">
        <ele>2007</ele>
        <time>2024-07-25T10:26:09+02:00</time>
      </trkpt>
      <trkpt lat="42.83462" lon="0.26648">
        <ele>2003</ele>
        <time>2024-07-25T10:26:51+02:00</time>
      </trkpt>
      <trkpt lat="42.83462" lon="0.26706">
        <ele>2000</ele>
        <time>2024-07-25T10:27:27+02:00</time>
      </trkpt>
      <trkpt lat="42.83457" lon="0.26767">
        <ele>2000</ele>
        <time>2024-07-25T10:28:09+02:00</time>
      </trkpt>
      <trkpt lat="42.83464" lon="0.26822">
        <ele>2000</ele>
        <time>2024-07-25T10:28:52+02:00</time>
      </trkpt>
      <trkpt lat="42.83471" lon="0.26879">
        <ele>1999</ele>
        <time>2024-07-25T10:29:34+02:00</time>
      </trkpt>
      <trkpt lat="42.83469" lon="0.26937">
        <ele>1996</ele>
        <time>2024-07-25T10:30:31+02:00</time>
      </trkpt>
      <trkpt lat="42.83449" lon="0.27005">
        <ele>1994</ele>
        <time>2024-07-25T10:31:36+02:00</time>
      </trkpt>
      <trkpt lat="42.83428" lon="0.27055">
        <ele>1992</ele>
        <time>2024-07-25T10:31:54+02:00</time>
      </trkpt>
      <trkpt lat="42.83437" lon="0.27111">
        <ele>1989</ele>
        <time>2024-07-25T10:32:36+02:00</time>
      </trkpt>
      <trkpt lat="42.83432" lon="0.27172">
        <ele>1989</ele>
        <time>2024-07-25T10:33:06+02:00</time>
      </trkpt>
      <trkpt lat="42.83429" lon="0.27232">
        <ele>1984</ele>
        <time>2024-07-25T10:33:46+02:00</time>
      </trkpt>
      <trkpt lat="42.83435" lon="0.27292">
        <ele>1979</ele>
        <time>2024-07-25T10:34:21+02:00</time>
      </trkpt>
      <trkpt lat="42.83407" lon="0.27346">
        <ele>1979</ele>
        <time>2024-07-25T10:35:03+02:00</time>
      </trkpt>
      <trkpt lat="42.8341" lon="0.27403">
        <ele>1977</ele>
        <time>2024-07-25T10:35:44+02:00</time>
      </trkpt>
      <trkpt lat="42.83426" lon="0.2746">
        <ele>1974</ele>
        <time>2024-07-25T10:36:20+02:00</time>
      </trkpt>
      <trkpt lat="42.8344" lon="0.27514">
        <ele>1971</ele>
        <time>2024-07-25T10:36:57+02:00</time>
      </trkpt>
      <trkpt lat="42.83458" lon="0.27569">
        <ele>1969</ele>
        <time>2024-07-25T10:37:32+02:00</time>
      </trkpt>
      <trkpt lat="42.83474" lon="0.27628">
        <ele>1966</ele>
        <time>2024-07-25T10:38:14+02:00</time>
      </trkpt>
      <trkpt lat="42.83482" lon="0.27683">
        <ele>1964</ele>
        <time>2024-07-25T10:38:55+02:00</time>
      </trkpt>
      <trkpt lat="42.83488" lon="0.27742">
        <ele>1961</ele>
        <time>2024-07-25T10:39:26+02:00</time>
      </trkpt>
      <trkpt lat="42.83492" lon="0.27804">
        <ele>1955</ele>
        <time>2024-07-25T10:40:07+02:00</time>
      </trkpt>
      <trkpt lat="42.83505" lon="0.27859">
        <ele>1950</ele>
        <time>2024-07-25T10:40:43+02:00</time>
      </trkpt>
      <trkpt lat="42.83518" lon="0.27922">
        <ele>1943</ele>
        <time>2024-07-25T10:41:14+02:00</time>
      </trkpt>
      <trkpt lat="42.83524" lon="0.27982">
        <ele>1937</ele>
        <time>2024-07-25T10:41:50+02:00</time>
      </trkpt>
      <trkpt lat="42.83531" lon="0.28044">
        <ele>1929</ele>
        <time>2024-07-25T10:42:31+02:00</time>
      </trkpt>
      <trkpt lat="42.83543" lon="0.28098">
        <ele>1918</ele>
        <time>2024-07-25T10:43:02+02:00</time>
      </trkpt>
      <trkpt lat="42.83565" lon="0.28153">
        <ele>1909</ele>
        <time>2024-07-25T10:43:45+02:00</time>
      </trkpt>
      <trkpt lat="42.8358" lon="0.2821">
        <ele>1898</ele>
        <time>2024-07-25T10:44:35+02:00</time>
      </trkpt>
      <trkpt lat="42.83601" lon="0.28264">
        <ele>1888</ele>
        <time>2024-07-25T10:45:08+02:00</time>
      </trkpt>
      <trkpt lat="42.83621" lon="0.28313">
        <ele>1877</ele>
        <time>2024-07-25T10:45:50+02:00</time>
      </trkpt>
      <trkpt lat="42.83649" lon="0.28358">
        <ele>1865</ele>
        <time>2024-07-25T10:46:44+02:00</time>
      </trkpt>
      <trkpt lat="42.8367" lon="0.28423">
        <ele>1856</ele>
        <time>2024-07-25T10:47:44+02:00</time>
      </trkpt>
      <trkpt lat="42.83687" lon="0.28475">
        <ele>1846</ele>
        <time>2024-07-25T10:48:26+02:00</time>
      </trkpt>
      <trkpt lat="42.83713" lon="0.28526">
        <ele>1834</ele>
        <time>2024-07-25T10:49:32+02:00</time>
      </trkpt>
      <trkpt lat="42.83738" lon="0.28573">
        <ele>1820</ele>
        <time>2024-07-25T10:50:21+02:00</time>
      </trkpt>
      <trkpt lat="42.83753" lon="0.28625">
        <ele>1809</ele>
        <time>2024-07-25T10:51:08+02:00</time>
      </trkpt>
      <trkpt lat="42.83779" lon="0.28674">
        <ele>1799</ele>
        <time>2024-07-25T10:52:03+02:00</time>
      </trkpt>
      <trkpt lat="42.83793" lon="0.28728">
        <ele>1786</ele>
        <time>2024-07-25T10:52:45+02:00</time>
      </trkpt>
      <trkpt lat="42.83805" lon="0.28783">
        <ele>1775</ele>
        <time>2024-07-25T10:53:38+02:00</time>
      </trkpt>
      <trkpt lat="42.83802" lon="0.28844">
        <ele>1761</ele>
        <time>2024-07-25T10:54:38+02:00</time>
      </trkpt>
      <trkpt lat="42.83806" lon="0.28903">
        <ele>1752</ele>
        <time>2024-07-25T10:56:09+02:00</time>
      </trkpt>
      <trkpt lat="42.83801" lon="0.28958">
        <ele>1742</ele>
        <time>2024-07-25T10:57:09+02:00</time>
      </trkpt>
      <trkpt lat="42.83793" lon="0.29013">
        <ele>1729</ele>
        <time>2024-07-25T10:58:03+02:00</time>
      </trkpt>
      <trkpt lat="42.8378" lon="0.29067">
        <ele>1720</ele>
        <time>2024-07-25T10:59:09+02:00</time>
      </trkpt>
      <trkpt lat="42.83768" lon="0.29125">
        <ele>1711</ele>
        <time>2024-07-25T11:00:45+02:00</time>
      </trkpt>
      <trkpt lat="42.8378" lon="0.29182">
        <ele>1703</ele>
        <time>2024-07-25T11:01:39+02:00</time>
      </trkpt>
      <trkpt lat="42.83797" lon="0.29237">
        <ele>1695</ele>
        <time>2024-07-25T11:02:27+02:00</time>
      </trkpt>
      <trkpt lat="42.8382" lon="0.2929">
        <ele>1687</ele>
        <time>2024-07-25T11:03:10+02:00</time>
      </trkpt>
      <trkpt lat="42.83825" lon="0.29345">
        <ele>1680</ele>
        <time>2024-07-25T11:03:51+02:00</time>
      </trkpt>
      <trkpt lat="42.83834" lon="0.29407">
        <ele>1678</ele>
        <time>2024-07-25T11:04:23+02:00</time>
      </trkpt>
      <trkpt lat="42.83843" lon="0.29471">
        <ele>1676</ele>
        <time>2024-07-25T11:05:11+02:00</time>
      </trkpt>
      <trkpt lat="42.83851" lon="0.29529">
        <ele>1672</ele>
        <time>2024-07-25T11:05:46+02:00</time>
      </trkpt>
      <trkpt lat="42.83872" lon="0.29579">
        <ele>1669</ele>
        <time>2024-07-25T11:06:28+02:00</time>
      </trkpt>
      <trkpt lat="42.83884" lon="0.2964">
        <ele>1666</ele>
        <time>2024-07-25T11:07:04+02:00</time>
      </trkpt>
      <trkpt lat="42.83878" lon="0.29696">
        <ele>1665</ele>
        <time>2024-07-25T11:07:34+02:00</time>
      </trkpt>
      <trkpt lat="42.83861" lon="0.29756">
        <ele>1661</ele>
        <time>2024-07-25T11:08:10+02:00</time>
      </trkpt>
      <trkpt lat="42.83836" lon="0.29808">
        <ele>1656</ele>
        <time>2024-07-25T11:08:52+02:00</time>
      </trkpt>
      <trkpt lat="42.83824" lon="0.29868">
        <ele>1650</ele>
        <time>2024-07-25T11:09:34+02:00</time>
      </trkpt>
      <trkpt lat="42.83795" lon="0.29909">
        <ele>1644</ele>
        <time>2024-07-25T11:10:16+02:00</time>
      </trkpt>
      <trkpt lat="42.8376" lon="0.29943">
        <ele>1638</ele>
        <time>2024-07-25T11:11:16+02:00</time>
      </trkpt>
      <trkpt lat="42.83762" lon="0.29999">
        <ele>1632</ele>
        <time>2024-07-25T11:11:58+02:00</time>
      </trkpt>
      <trkpt lat="42.83752" lon="0.30058">
        <ele>1626</ele>
        <time>2024-07-25T11:12:40+02:00</time>
      </trkpt>
      <trkpt lat="42.8374" lon="0.30114">
        <ele>1620</ele>
        <time>2024-07-25T11:13:28+02:00</time>
      </trkpt>
      <trkpt lat="42.83706" lon="0.30154">
        <ele>1614</ele>
        <time>2024-07-25T11:14:10+02:00</time>
      </trkpt>
      <trkpt lat="42.83679" lon="0.30202">
        <ele>1607</ele>
        <time>2024-07-25T11:14:52+02:00</time>
      </trkpt>
      <trkpt lat="42.83659" lon="0.30257">
        <ele>1601</ele>
        <time>2024-07-25T11:15:40+02:00</time>
      </trkpt>
      <trkpt lat="42.83649" lon="0.30316">
        <ele>1594</ele>
        <time>2024-07-25T11:16:28+02:00</time>
      </trkpt>
      <trkpt lat="42.83643" lon="0.30375">
        <ele>1583</ele>
        <time>2024-07-25T11:17:10+02:00</time>
      </trkpt>
      <trkpt lat="42.83647" lon="0.30438">
        <ele>1573</ele>
        <time>2024-07-25T11:17:52+02:00</time>
      </trkpt>
      <trkpt lat="42.83644" lon="0.30493">
        <ele>1565</ele>
        <time>2024-07-25T11:18:34+02:00</time>
      </trkpt>
      <trkpt lat="42.83645" lon="0.30554">
        <ele>1551</ele>
        <time>2024-07-25T11:19:22+02:00</time>
      </trkpt>
      <trkpt lat="42.8364" lon="0.30612">
        <ele>1539</ele>
        <time>2024-07-25T11:20:16+02:00</time>
      </trkpt>
      <trkpt lat="42.83637" lon="0.3067">
        <ele>1526</ele>
        <time>2024-07-25T11:21:28+02:00</time>
      </trkpt>
      <trkpt lat="42.8363" lon="0.30732">
        <ele>1510</ele>
        <time>2024-07-25T11:22:49+02:00</time>
      </trkpt>
      <trkpt lat="42.83627" lon="0.30789">
        <ele>1499</ele>
        <time>2024-07-25T11:23:45+02:00</time>
      </trkpt>
      <trkpt lat="42.83615" lon="0.30851">
        <ele>1487</ele>
        <time>2024-07-25T11:25:03+02:00</time>
      </trkpt>
      <trkpt lat="42.83606" lon="0.30912">
        <ele>1474</ele>
        <time>2024-07-25T11:25:51+02:00</time>
      </trkpt>
      <trkpt lat="42.83602" lon="0.3097">
        <ele>1462</ele>
        <time>2024-07-25T11:26:50+02:00</time>
      </trkpt>
      <trkpt lat="42.83614" lon="0.31028">
        <ele>1451</ele>
        <time>2024-07-25T11:27:50+02:00</time>
      </trkpt>
      <trkpt lat="42.83644" lon="0.3107">
        <ele>1443</ele>
        <time>2024-07-25T11:28:56+02:00</time>
      </trkpt>
      <trkpt lat="42.83683" lon="0.31089">
        <ele>1437</ele>
        <time>2024-07-25T11:30:14+02:00</time>
      </trkpt>
      <trkpt lat="42.83664" lon="0.31147">
        <ele>1432</ele>
        <time>2024-07-25T11:53:00+02:00</time>
      </trkpt>
      <trkpt lat="42.83646" lon="0.31202">
        <ele>1428</ele>
        <time>2024-07-25T11:53:42+02:00</time>
      </trkpt>
      <trkpt lat="42.83627" lon="0.31256">
        <ele>1426</ele>
        <time>2024-07-25T11:54:18+02:00</time>
      </trkpt>
      <trkpt lat="42.8361" lon="0.31311">
        <ele>1427</ele>
        <time>2024-07-25T11:54:48+02:00</time>
      </trkpt>
      <trkpt lat="42.83593" lon="0.31366">
        <ele>1427</ele>
        <time>2024-07-25T11:55:32+02:00</time>
      </trkpt>
      <trkpt lat="42.83619" lon="0.31421">
        <ele>1421</ele>
        <time>2024-07-25T11:56:12+02:00</time>
      </trkpt>
      <trkpt lat="42.83645" lon="0.31464">
        <ele>1416</ele>
        <time>2024-07-25T11:56:42+02:00</time>
      </trkpt>
      <trkpt lat="42.83685" lon="0.31487">
        <ele>1408</ele>
        <time>2024-07-25T11:57:18+02:00</time>
      </trkpt>
      <trkpt lat="42.83727" lon="0.31501">
        <ele>1397</ele>
        <time>2024-07-25T11:58:00+02:00</time>
      </trkpt>
      <trkpt lat="42.83764" lon="0.31531">
        <ele>1390</ele>
        <time>2024-07-25T11:59:00+02:00</time>
      </trkpt>
      <trkpt lat="42.83801" lon="0.31574">
        <ele>1376</ele>
        <time>2024-07-25T12:00:18+02:00</time>
      </trkpt>
      <trkpt lat="42.83758" lon="0.31568">
        <ele>1358</ele>
        <time>2024-07-25T12:02:12+02:00</time>
      </trkpt>
      <trkpt lat="42.83716" lon="0.31559">
        <ele>1345</ele>
        <time>2024-07-25T12:03:18+02:00</time>
      </trkpt>
      <trkpt lat="42.83679" lon="0.3159">
        <ele>1327</ele>
        <time>2024-07-25T12:04:24+02:00</time>
      </trkpt>
      <trkpt lat="42.83645" lon="0.31628">
        <ele>1310</ele>
        <time>2024-07-25T12:05:30+02:00</time>
      </trkpt>
      <trkpt lat="42.83685" lon="0.31659">
        <ele>1292</ele>
        <time>2024-07-25T12:07:14+02:00</time>
      </trkpt>
      <trkpt lat="42.83654" lon="0.31701">
        <ele>1272</ele>
        <time>2024-07-25T12:08:49+02:00</time>
      </trkpt>
      <trkpt lat="42.83625" lon="0.31744">
        <ele>1252</ele>
        <time>2024-07-25T12:09:55+02:00</time>
      </trkpt>
      <trkpt lat="42.83591" lon="0.31777">
        <ele>1230</ele>
        <time>2024-07-25T12:10:43+02:00</time>
      </trkpt>
      <trkpt lat="42.83551" lon="0.3178">
        <ele>1209</ele>
        <time>2024-07-25T12:12:07+02:00</time>
      </trkpt>
      <trkpt lat="42.83536" lon="0.31832">
        <ele>1188</ele>
        <time>2024-07-25T12:13:49+02:00</time>
      </trkpt>
      <trkpt lat="42.83493" lon="0.31835">
        <ele>1168</ele>
        <time>2024-07-25T12:14:49+02:00</time>
      </trkpt>
      <trkpt lat="42.83537" lon="0.31853">
        <ele>1150</ele>
        <time>2024-07-25T12:16:57+02:00</time>
      </trkpt>
      <trkpt lat="42.83575" lon="0.31884">
        <ele>1132</ele>
        <time>2024-07-25T12:18:09+02:00</time>
      </trkpt>
      <trkpt lat="42.83587" lon="0.31939">
        <ele>1116</ele>
        <time>2024-07-25T12:19:39+02:00</time>
      </trkpt>
      <trkpt lat="42.83579" lon="0.31993">
        <ele>1099</ele>
        <time>2024-07-25T12:21:04+02:00</time>
      </trkpt>
      <trkpt lat="42.83523" lon="0.32005">
        <ele>1082</ele>
        <time>2024-07-25T12:23:45+02:00</time>
      </trkpt>
      <trkpt lat="42.83489" lon="0.31976">
        <ele>1071</ele>
        <time>2024-07-25T12:25:41+02:00</time>
      </trkpt>
      <trkpt lat="42.83452" lon="0.31939">
        <ele>1056</ele>
        <time>2024-07-25T12:27:06+02:00</time>
      </trkpt>
      <trkpt lat="42.83406" lon="0.31931">
        <ele>1040</ele>
        <time>2024-07-25T12:28:19+02:00</time>
      </trkpt>
      <trkpt lat="42.83361" lon="0.31952">
        <ele>1025</ele>
        <time>2024-07-25T12:29:31+02:00</time>
      </trkpt>
      <trkpt lat="42.83331" lon="0.31991">
        <ele>1011</ele>
        <time>2024-07-25T12:30:48+02:00</time>
      </trkpt>
      <trkpt lat="42.83291" lon="0.32021">
        <ele>998</ele>
        <time>2024-07-25T12:35:12+02:00</time>
      </trkpt>
      <trkpt lat="42.83248" lon="0.32005">
        <ele>985</ele>
        <time>2024-07-25T12:36:16+02:00</time>
      </trkpt>
      <trkpt lat="42.83206" lon="0.31996">
        <ele>972</ele>
        <time>2024-07-25T12:37:22+02:00</time>
      </trkpt>
      <trkpt lat="42.83237" lon="0.32038">
        <ele>961</ele>
        <time>2024-07-25T12:38:28+02:00</time>
      </trkpt>
      <trkpt lat="42.8325" lon="0.32101">
        <ele>952</ele>
        <time>2024-07-25T12:39:40+02:00</time>
      </trkpt>
      <trkpt lat="42.83288" lon="0.3212">
        <ele>942</ele>
        <time>2024-07-25T12:40:43+02:00</time>
      </trkpt>
      <trkpt lat="42.83264" lon="0.32169">
        <ele>929</ele>
        <time>2024-07-25T12:42:49+02:00</time>
      </trkpt>
      <trkpt lat="42.833" lon="0.32197">
        <ele>917</ele>
        <time>2024-07-25T12:44:43+02:00</time>
      </trkpt>
      <trkpt lat="42.83333" lon="0.32246">
        <ele>910</ele>
        <time>2024-07-25T12:45:34+02:00</time>
      </trkpt>
      <trkpt lat="42.83296" lon="0.32222">
        <ele>899</ele>
        <time>2024-07-25T12:46:16+02:00</time>
      </trkpt>
      <trkpt lat="42.83277" lon="0.32271">
        <ele>886</ele>
        <time>2024-07-25T12:48:43+02:00</time>
      </trkpt>
      <trkpt lat="42.83245" lon="0.32305">
        <ele>873</ele>
        <time>2024-07-25T12:49:31+02:00</time>
      </trkpt>
      <trkpt lat="42.83216" lon="0.32345">
        <ele>865</ele>
        <time>2024-07-25T12:50:25+02:00</time>
      </trkpt>
      <trkpt lat="42.83178" lon="0.32386">
        <ele>860</ele>
        <time>2024-07-25T12:51:25+02:00</time>
      </trkpt>
      <trkpt lat="42.83152" lon="0.32434">
        <ele>856</ele>
        <time>2024-07-25T12:52:28+02:00</time>
      </trkpt>
      <trkpt lat="42.83117" lon="0.32481">
        <ele>854</ele>
        <time>2024-07-25T12:53:26+02:00</time>
      </trkpt>
      <trkpt lat="42.83096" lon="0.32538">
        <ele>851</ele>
        <time>2024-07-25T12:54:21+02:00</time>
      </trkpt>
      <trkpt lat="42.83057" lon="0.32556">
        <ele>847</ele>
        <time>2024-07-25T12:54:51+02:00</time>
      </trkpt>
      <trkpt lat="42.83024" lon="0.32603">
        <ele>843</ele>
        <time>2024-07-25T12:55:32+02:00</time>
      </trkpt>
      <trkpt lat="42.83" lon="0.32653">
        <ele>841</ele>
        <time>2024-07-25T12:56:09+02:00</time>
      </trkpt>
      <trkpt lat="42.82982" lon="0.3271">
        <ele>839</ele>
        <time>2024-07-25T12:58:36+02:00</time>
      </trkpt>
      <trkpt lat="42.8297" lon="0.32772">
        <ele>836</ele>
        <time>2024-07-25T12:59:09+02:00</time>
      </trkpt>
      <trkpt lat="42.82966" lon="0.32837">
        <ele>832</ele>
        <time>2024-07-25T12:59:44+02:00</time>
      </trkpt>
      <trkpt lat="42.83004" lon="0.32871">
        <ele>830</ele>
        <time>2024-07-25T13:00:46+02:00</time>
      </trkpt>
      <trkpt lat="42.83008" lon="0.32931">
        <ele>833</ele>
        <time>2024-07-25T13:01:40+02:00</time>
      </trkpt>
      <trkpt lat="42.82998" lon="0.32988">
        <ele>836</ele>
        <time>2024-07-25T13:02:22+02:00</time>
      </trkpt>
      <trkpt lat="42.82976" lon="0.3304">
        <ele>838</ele>
        <time>2024-07-25T13:02:58+02:00</time>
      </trkpt>
      <trkpt lat="42.82956" lon="0.33097">
        <ele>839</ele>
        <time>2024-07-25T13:03:40+02:00</time>
      </trkpt>
      <trkpt lat="42.82931" lon="0.33142">
        <ele>842</ele>
        <time>2024-07-25T13:04:16+02:00</time>
      </trkpt>
      <trkpt lat="42.82901" lon="0.33212">
        <ele>845</ele>
        <time>2024-07-25T13:04:43+02:00</time>
      </trkpt>
      <trkpt lat="42.82883" lon="0.33267">
        <ele>846</ele>
        <time>2024-07-25T13:05:28+02:00</time>
      </trkpt>
      <trkpt lat="42.82873" lon="0.33331">
        <ele>845</ele>
        <time>2024-07-25T13:05:58+02:00</time>
      </trkpt>
      <trkpt lat="42.82844" lon="0.33375">
        <ele>840</ele>
        <time>2024-07-25T13:06:46+02:00</time>
      </trkpt>
      <trkpt lat="42.82812" lon="0.33426">
        <ele>855</ele>
        <time>2024-07-25T13:07:23+02:00</time>
      </trkpt>
      <trkpt lat="42.8277" lon="0.3346">
        <ele>845</ele>
        <time>2024-07-25T13:07:52+02:00</time>
      </trkpt>
      <trkpt lat="42.82764" lon="0.3352">
        <ele>842</ele>
        <time>2024-07-25T13:09:23+02:00</time>
      </trkpt>
      <trkpt lat="42.82759" lon="0.33584">
        <ele>842</ele>
        <time>2024-07-25T13:09:44+02:00</time>
      </trkpt>
      <trkpt lat="42.82713" lon="0.33588">
        <ele>850</ele>
        <time>2024-07-25T13:11:50+02:00</time>
        <extensions>
          <visugpx:TrkExtension xmlns:visugpx="https://www.visugpx.com/editgpx/">
            <visugpx:node>1</visugpx:node>
            </visugpx:TrkExtension>
        </extensions>
      </trkpt>
    </trkseg>
  </trk>
</gpx>